Aviation Digital Data Service (ADDS)

Output produced by METARs form (0613 UTC 24 January 2019)
found at http://aviationweather.gov/metar/data/
 
KNEW 240534Z 2406/2506 30025G32KT P6SM OVC016 
     FM240700 32019G29KT P6SM BKN045 
     FM240900 33017G27KT P6SM BKN090 
     FM241000 33015G24KT P6SM SCT130 
     FM241200 34012KT P6SM FEW250